Time;durP1;ratioP1;P1;durP2;ratioP2;P2;SDS_P1;SDS_P2;PMS_P1;PMS_P2;Temp;Humidity;BMP_temperature;BMP_pressure;BME280_temperature;BME280_humidity;BME280_pressure;Samples;Min_cycle;Max_cycle;Signal;HPM_P1;HPM_P2
2022/01/09 00:01:45;;;;;;;61.67;30.87;;;1.90;99.90;;;;;;5054598;28;20965;-70
2022/01/09 00:04:34;;;;;;;60.30;30.13;;;1.90;99.90;;;;;;5053563;28;20220;-70
2022/01/09 00:07:23;;;;;;;64.23;31.60;;;2.00;99.90;;;;;;5040213;28;20312;-71
2022/01/09 00:10:14;;;;;;;63.97;30.97;;;2.00;99.90;;;;;;5055712;28;20813;-69
2022/01/09 00:13:03;;;;;;;58.30;30.60;;;1.90;99.90;;;;;;5058983;28;21239;-68
2022/01/09 00:15:52;;;;;;;63.40;29.93;;;2.00;99.90;;;;;;5042322;28;20769;-70
2022/01/09 00:18:41;;;;;;;66.67;31.00;;;1.90;99.90;;;;;;5054563;28;20715;-70
2022/01/09 00:21:29;;;;;;;68.47;32.87;;;2.00;99.90;;;;;;5054227;28;20228;-72
2022/01/09 00:24:18;;;;;;;68.13;31.30;;;2.00;99.90;;;;;;5042471;28;20269;-70
2022/01/09 00:27:08;;;;;;;67.57;32.63;;;1.90;99.90;;;;;;5055218;28;20945;-70
2022/01/09 00:29:57;;;;;;;72.37;33.83;;;1.80;99.90;;;;;;5054512;28;20231;-71
2022/01/09 00:32:45;;;;;;;70.27;33.60;;;1.90;99.90;;;;;;5038984;28;20240;-70
2022/01/09 00:35:35;;;;;;;68.10;32.40;;;1.90;99.90;;;;;;5053349;28;20221;-70
2022/01/09 00:38:24;;;;;;;79.93;35.13;;;1.80;99.90;;;;;;5047483;28;20228;-72
2022/01/09 00:41:13;;;;;;;74.30;34.73;;;1.80;99.90;;;;;;5053984;28;20231;-70
2022/01/09 00:44:03;;;;;;;77.17;34.60;;;1.80;99.90;;;;;;5036822;28;20228;-70
2022/01/09 00:46:52;;;;;;;68.93;33.97;;;1.80;99.90;;;;;;5054143;28;20208;-71
2022/01/09 00:49:40;;;;;;;75.87;35.50;;;1.90;99.90;;;;;;5052071;28;20295;-70
2022/01/09 00:52:29;;;;;;;78.37;35.47;;;1.90;99.90;;;;;;5051449;28;20219;-71
2022/01/09 00:55:18;;;;;;;83.67;34.80;;;1.90;99.90;;;;;;5047512;28;20237;-70
2022/01/09 00:58:07;;;;;;;74.47;35.37;;;1.90;99.90;;;;;;5049682;28;20212;-70
2022/01/09 01:00:58;;;;;;;73.43;34.57;;;1.90;99.90;;;;;;5050412;28;20221;-71
2022/01/09 01:03:47;;;;;;;68.20;34.27;;;1.90;99.90;;;;;;5039867;28;20308;-71
2022/01/09 01:06:36;;;;;;;72.50;34.80;;;1.90;99.90;;;;;;5046837;28;20220;-70
2022/01/09 01:09:29;;;;;;;76.50;34.87;;;1.90;99.90;;;;;;5046529;28;20682;-72
2022/01/09 01:12:18;;;;;;;72.13;35.03;;;1.90;99.90;;;;;;5037516;28;20894;-72
2022/01/09 01:15:08;;;;;;;73.93;35.67;;;1.90;99.90;;;;;;5054766;28;20224;-73
2022/01/09 01:17:58;;;;;;;78.40;36.53;;;1.80;99.90;;;;;;5050712;28;20216;-70
2022/01/09 01:20:46;;;;;;;71.07;35.50;;;1.80;99.90;;;;;;5049468;28;20227;-71
2022/01/09 01:23:35;;;;;;;74.33;36.93;;;1.80;99.90;;;;;;5032767;28;20225;-72
2022/01/09 01:26:24;;;;;;;73.20;35.60;;;1.80;99.90;;;;;;5035349;28;20213;-70
2022/01/09 01:29:12;;;;;;;72.00;35.50;;;1.80;99.90;;;;;;5054150;28;20235;-69
2022/01/09 01:32:01;;;;;;;72.90;35.77;;;1.80;99.90;;;;;;5050434;28;20227;-70
2022/01/09 01:34:51;;;;;;;68.70;35.03;;;1.80;99.90;;;;;;5050713;28;20251;-71
2022/01/09 01:37:42;;;;;;;76.37;35.80;;;1.80;99.90;;;;;;5037725;28;20239;-70
2022/01/09 01:40:30;;;;;;;74.97;35.30;;;1.80;99.90;;;;;;5052550;28;21071;-71
2022/01/09 01:43:19;;;;;;;71.53;35.43;;;1.80;99.90;;;;;;5049427;28;20237;-71
2022/01/09 01:46:07;;;;;;;76.27;35.50;;;1.80;99.90;;;;;;5043452;28;20716;-71
2022/01/09 01:48:56;;;;;;;77.60;36.07;;;1.80;99.90;;;;;;5053288;28;20709;-72
2022/01/09 01:51:46;;;;;;;81.93;36.33;;;1.80;99.90;;;;;;5040561;28;20216;-73
2022/01/09 01:54:35;;;;;;;78.27;35.43;;;1.80;99.90;;;;;;5040183;28;20232;-70
2022/01/09 01:57:24;;;;;;;79.43;35.87;;;1.80;99.90;;;;;;5040859;28;20220;-71
2022/01/09 02:00:17;;;;;;;78.23;35.00;;;1.70;99.90;;;;;;5041927;28;20216;-68
2022/01/09 02:03:06;;;;;;;73.37;35.60;;;1.70;99.90;;;;;;5056313;28;20213;-71
2022/01/09 02:05:56;;;;;;;71.37;34.07;;;1.60;99.90;;;;;;5040047;28;20224;-69
2022/01/09 02:08:46;;;;;;;74.53;36.17;;;1.60;99.90;;;;;;5043802;28;20235;-70
2022/01/09 02:11:35;;;;;;;66.23;33.07;;;1.60;99.90;;;;;;5051937;28;20225;-70
2022/01/09 02:14:24;;;;;;;75.83;35.37;;;1.70;99.90;;;;;;5057040;28;20259;-70
2022/01/09 02:17:17;;;;;;;73.37;34.40;;;1.70;99.90;;;;;;5044209;28;20219;-69
2022/01/09 02:20:08;;;;;;;71.30;35.87;;;1.80;99.90;;;;;;5055052;28;20866;-69
2022/01/09 02:22:57;;;;;;;76.50;35.73;;;1.80;99.90;;;;;;5051740;28;20223;-69
2022/01/09 02:25:47;;;;;;;71.60;33.23;;;1.80;99.90;;;;;;5049118;28;20759;-69
2022/01/09 02:28:36;;;;;;;68.90;32.70;;;1.70;99.90;;;;;;5043259;28;20528;-69
2022/01/09 02:31:25;;;;;;;74.90;34.50;;;1.80;99.90;;;;;;5044713;28;20220;-71
2022/01/09 02:34:13;;;;;;;65.63;32.90;;;1.70;99.90;;;;;;5044192;28;20236;-71
2022/01/09 02:37:04;;;;;;;69.90;33.40;;;1.70;99.90;;;;;;5056298;28;20224;-69
2022/01/09 02:39:53;;;;;;;69.17;32.83;;;1.70;99.90;;;;;;5045000;28;20231;-71
2022/01/09 02:42:41;;;;;;;67.83;32.13;;;1.60;99.90;;;;;;5042956;28;20225;-71
2022/01/09 02:45:30;;;;;;;70.10;33.27;;;1.60;99.90;;;;;;5039614;28;20234;-69
2022/01/09 02:48:19;;;;;;;66.70;32.73;;;1.60;99.90;;;;;;5042846;28;20246;-71
2022/01/09 02:51:12;;;;;;;67.73;33.57;;;1.60;99.90;;;;;;5051314;28;20868;-72
2022/01/09 02:55:05;;;;;;;63.80;31.07;;;1.60;99.90;;;;;;5051999;28;20933;-71
2022/01/09 02:57:14;;;;;;;69.17;32.23;;;1.60;99.90;;;;;;5049956;28;20775;-69
2022/01/09 03:00:04;;;;;;;66.60;32.17;;;1.50;99.90;;;;;;5052185;28;20631;-69
2022/01/09 03:02:53;;;;;;;67.90;31.97;;;1.50;99.90;;;;;;5041494;28;20914;-70
2022/01/09 03:05:42;;;;;;;65.23;32.00;;;1.50;99.90;;;;;;5052252;28;20888;-71
2022/01/09 03:08:31;;;;;;;70.60;31.83;;;1.60;99.90;;;;;;5052267;28;20907;-68
2022/01/09 03:11:21;;;;;;;63.63;31.53;;;1.70;99.90;;;;;;5038278;28;20229;-70
2022/01/09 03:14:09;;;;;;;69.10;30.90;;;1.60;99.90;;;;;;5040646;28;20330;-68
2022/01/09 03:16:58;;;;;;;66.80;31.03;;;1.50;99.90;;;;;;5054731;28;20793;-70
2022/01/09 03:19:46;;;;;;;62.63;30.50;;;1.70;99.90;;;;;;5052821;28;20370;-71
2022/01/09 03:22:35;;;;;;;63.63;30.90;;;1.60;99.90;;;;;;5039973;28;20311;-68
2022/01/09 03:25:24;;;;;;;67.17;30.70;;;1.70;99.90;;;;;;5051195;28;20280;-69
2022/01/09 03:28:14;;;;;;;59.60;30.77;;;1.80;99.90;;;;;;5043182;28;20229;-69
2022/01/09 03:31:03;;;;;;;72.17;31.00;;;1.80;99.90;;;;;;5060052;28;20213;-68
2022/01/09 03:33:51;;;;;;;66.27;30.40;;;1.80;99.90;;;;;;5046671;28;20660;-69
2022/01/09 03:36:40;;;;;;;62.37;30.90;;;1.80;99.90;;;;;;5055693;28;20236;-69
2022/01/09 03:39:28;;;;;;;60.40;30.40;;;1.80;99.90;;;;;;5041497;28;20728;-70
2022/01/09 03:42:18;;;;;;;61.70;29.70;;;1.70;99.90;;;;;;5055236;28;20408;-70
2022/01/09 03:45:13;;;;;;;64.03;29.53;;;1.80;99.90;;;;;;5041872;28;20744;-72
2022/01/09 03:48:02;;;;;;;64.50;29.23;;;1.80;99.90;;;;;;5057899;28;20224;-70
2022/01/09 03:50:52;;;;;;;67.57;29.90;;;1.70;99.90;;;;;;5048230;28;20357;-69
2022/01/09 03:53:40;;;;;;;57.90;28.93;;;1.70;99.90;;;;;;5038144;28;20224;-69
2022/01/09 03:56:29;;;;;;;71.57;30.10;;;1.70;99.90;;;;;;5039710;28;20220;-71
2022/01/09 03:59:19;;;;;;;57.63;29.63;;;1.80;99.90;;;;;;5055295;28;20807;-69
2022/01/09 04:02:09;;;;;;;63.27;29.57;;;1.80;99.90;;;;;;5054767;28;20224;-70
2022/01/09 04:05:01;;;;;;;62.93;29.07;;;1.80;99.90;;;;;;5042637;28;20304;-71
2022/01/09 04:07:49;;;;;;;54.47;28.43;;;1.70;99.90;;;;;;5042388;28;20222;-71
2022/01/09 04:10:57;;;;;;;59.43;29.53;;;1.70;99.90;;;;;;5040717;28;20246;-70
2022/01/09 04:13:45;;;;;;;59.97;29.03;;;1.50;99.90;;;;;;5056940;28;20220;-68
2022/01/09 04:16:34;;;;;;;61.23;29.10;;;1.50;99.90;;;;;;5033645;28;20919;-70
2022/01/09 04:19:24;;;;;;;56.33;28.57;;;1.50;99.90;;;;;;5048886;28;20247;-69
2022/01/09 04:22:13;;;;;;;71.03;31.37;;;1.50;99.90;;;;;;5042945;28;20239;-70
2022/01/09 04:25:01;;;;;;;60.77;29.43;;;1.40;99.90;;;;;;5052565;28;20243;-71
2022/01/09 04:27:51;;;;;;;60.37;27.97;;;1.40;99.90;;;;;;5053447;28;20245;-70
2022/01/09 04:30:40;;;;;;;63.53;29.40;;;1.40;99.90;;;;;;5038363;28;20680;-70
2022/01/09 04:33:29;;;;;;;64.10;30.73;;;1.40;99.90;;;;;;5039991;28;20246;-71
2022/01/09 04:36:19;;;;;;;65.93;29.67;;;1.40;99.90;;;;;;5051997;28;20224;-70
2022/01/09 04:39:07;;;;;;;58.77;28.67;;;1.30;99.90;;;;;;5057905;28;20341;-70
2022/01/09 04:41:56;;;;;;;59.47;29.97;;;1.30;99.90;;;;;;5055693;28;20223;-70
2022/01/09 04:44:45;;;;;;;65.73;29.80;;;1.30;99.90;;;;;;5053730;28;20229;-70
2022/01/09 04:47:33;;;;;;;60.67;29.40;;;1.20;99.90;;;;;;5050165;28;20216;-71
2022/01/09 04:50:25;;;;;;;57.13;29.47;;;1.20;99.90;;;;;;5052256;28;20221;-70
2022/01/09 04:53:15;;;;;;;63.53;30.30;;;1.20;99.90;;;;;;5033255;28;20243;-69
2022/01/09 04:56:04;;;;;;;59.57;29.97;;;1.20;99.90;;;;;;5051470;28;20254;-70
2022/01/09 04:58:53;;;;;;;59.80;28.87;;;1.10;99.90;;;;;;5049571;28;20224;-71
2022/01/09 05:01:42;;;;;;;59.77;28.97;;;1.20;99.90;;;;;;5050450;28;20227;-70
2022/01/09 05:04:30;;;;;;;58.83;29.50;;;1.10;99.90;;;;;;5048831;28;20938;-70
2022/01/09 05:07:19;;;;;;;60.23;30.50;;;1.10;99.90;;;;;;5040998;28;20229;-72
2022/01/09 05:10:11;;;;;;;61.80;29.73;;;1.10;99.90;;;;;;5052529;28;20228;-71
2022/01/09 05:12:59;;;;;;;64.20;29.53;;;1.10;99.90;;;;;;5048755;28;20943;-71
2022/01/09 05:15:48;;;;;;;56.53;28.67;;;1.10;99.90;;;;;;5036675;28;20220;-71
2022/01/09 05:18:50;;;;;;;59.33;28.93;;;1.10;99.90;;;;;;5035314;28;20224;-70
2022/01/09 05:21:39;;;;;;;63.67;31.17;;;1.10;99.90;;;;;;5051086;28;20231;-69
2022/01/09 05:24:27;;;;;;;67.30;30.47;;;1.10;99.90;;;;;;5049695;28;20216;-71
2022/01/09 05:27:17;;;;;;;61.97;30.13;;;1.00;99.90;;;;;;5051528;28;20311;-70
2022/01/09 05:30:07;;;;;;;66.70;29.63;;;1.00;99.90;;;;;;5052572;28;20228;-70
2022/01/09 05:32:59;;;;;;;59.63;28.87;;;1.00;99.90;;;;;;5050550;28;20219;-70
2022/01/09 05:35:52;;;;;;;59.47;28.57;;;1.00;99.90;;;;;;5051298;28;20300;-71
2022/01/09 05:38:40;;;;;;;60.43;29.30;;;1.00;99.90;;;;;;5056138;28;20700;-69
2022/01/09 05:41:29;;;;;;;60.67;29.20;;;0.90;99.90;;;;;;5053982;28;20320;-69
2022/01/09 05:44:19;;;;;;;62.87;29.87;;;0.80;99.90;;;;;;5040481;28;20216;-72
2022/01/09 05:47:08;;;;;;;65.20;29.37;;;0.80;99.90;;;;;;5053714;28;20228;-70
2022/01/09 05:49:57;;;;;;;64.90;29.27;;;0.90;99.90;;;;;;5037353;28;20227;-71
2022/01/09 05:52:45;;;;;;;60.90;29.30;;;0.80;99.90;;;;;;5040477;28;20216;-70
2022/01/09 05:55:34;;;;;;;58.93;28.60;;;0.80;99.90;;;;;;5050570;28;20221;-69
2022/01/09 05:58:23;;;;;;;62.73;30.10;;;0.80;99.90;;;;;;5048847;28;20216;-70
2022/01/09 06:01:13;;;;;;;65.30;30.07;;;0.80;99.90;;;;;;5029555;28;20244;-70
2022/01/09 06:04:01;;;;;;;62.00;28.70;;;0.80;99.90;;;;;;5050266;28;20324;-69
2022/01/09 06:06:50;;;;;;;69.07;30.07;;;0.70;99.90;;;;;;5038457;28;20589;-70
2022/01/09 06:09:39;;;;;;;61.03;28.97;;;0.70;99.90;;;;;;5051151;28;20236;-72
2022/01/09 06:12:28;;;;;;;60.07;29.33;;;0.70;99.90;;;;;;5037056;28;20231;-70
2022/01/09 06:15:16;;;;;;;64.17;29.70;;;0.70;99.90;;;;;;5038821;28;20741;-71
2022/01/09 06:18:06;;;;;;;65.70;29.47;;;0.70;99.90;;;;;;5048287;28;20704;-69
2022/01/09 06:20:55;;;;;;;67.23;29.63;;;0.60;99.90;;;;;;5038863;28;20223;-70
2022/01/09 06:23:43;;;;;;;64.80;30.23;;;0.50;99.90;;;;;;5039065;28;20228;-70
2022/01/09 06:26:35;;;;;;;64.57;28.33;;;0.60;99.90;;;;;;5037011;28;20221;-70
2022/01/09 06:29:24;;;;;;;65.23;29.97;;;0.50;99.90;;;;;;5047254;28;20232;-71
2022/01/09 06:32:12;;;;;;;66.77;29.70;;;0.50;99.90;;;;;;5039032;28;20383;-71
2022/01/09 06:35:07;;;;;;;64.37;29.93;;;0.50;99.90;;;;;;5055792;28;20231;-70
2022/01/09 06:37:55;;;;;;;70.23;29.10;;;0.50;99.90;;;;;;5056686;28;20345;-69
2022/01/09 06:40:44;;;;;;;66.40;30.63;;;0.40;99.90;;;;;;5057668;28;20243;-70
2022/01/09 06:43:33;;;;;;;66.40;29.70;;;0.50;99.90;;;;;;5042647;28;20225;-71
2022/01/09 06:46:21;;;;;;;63.43;29.60;;;0.50;99.90;;;;;;5046450;28;20821;-71
2022/01/09 06:49:10;;;;;;;65.93;30.13;;;0.40;99.90;;;;;;5040725;28;20228;-71
2022/01/09 06:52:00;;;;;;;61.00;27.33;;;0.40;99.90;;;;;;5052514;28;20230;-70
2022/01/09 06:54:49;;;;;;;60.77;28.80;;;0.40;99.90;;;;;;5040773;28;20224;-71
2022/01/09 06:57:39;;;;;;;66.43;29.23;;;0.40;99.90;;;;;;5040878;28;20230;-70
2022/01/09 07:00:31;;;;;;;68.77;30.00;;;0.50;99.90;;;;;;5059130;28;20248;-70
2022/01/09 07:03:19;;;;;;;66.87;30.17;;;0.40;99.90;;;;;;5056012;28;20278;-71
2022/01/09 07:06:08;;;;;;;58.97;29.50;;;0.50;99.90;;;;;;5043253;28;20336;-71
2022/01/09 07:08:58;;;;;;;67.40;29.47;;;0.50;99.90;;;;;;5047380;28;20718;-71
2022/01/09 07:11:47;;;;;;;72.80;31.83;;;0.50;99.90;;;;;;5046495;28;20222;-71
2022/01/09 07:14:36;;;;;;;66.03;30.33;;;0.50;99.90;;;;;;5047709;28;20223;-68
2022/01/09 07:17:25;;;;;;;69.50;31.10;;;0.50;99.90;;;;;;5057215;28;20228;-70
2022/01/09 07:20:13;;;;;;;72.57;31.60;;;0.40;99.90;;;;;;5056194;28;20239;-70
2022/01/09 07:23:02;;;;;;;66.03;30.23;;;0.50;99.90;;;;;;5044259;28;20796;-70
2022/01/09 07:25:52;;;;;;;66.93;32.00;;;0.50;99.90;;;;;;5055691;28;20220;-70
2022/01/09 07:28:41;;;;;;;71.43;33.53;;;0.50;99.90;;;;;;5055571;28;20234;-70
2022/01/09 07:31:29;;;;;;;66.20;31.57;;;0.60;99.90;;;;;;5060559;28;20223;-70
2022/01/09 07:34:18;;;;;;;67.03;29.93;;;0.60;99.90;;;;;;5063443;28;20317;-69
2022/01/09 07:37:07;;;;;;;66.03;31.00;;;0.60;99.90;;;;;;5056116;28;20220;-69
2022/01/09 07:39:55;;;;;;;65.57;30.67;;;0.50;99.90;;;;;;5052882;28;20248;-69
2022/01/09 07:42:47;;;;;;;66.00;29.23;;;0.60;99.90;;;;;;5057236;28;20222;-71
2022/01/09 07:45:35;;;;;;;69.77;32.33;;;0.50;99.90;;;;;;5053775;28;20228;-72
2022/01/09 07:48:24;;;;;;;67.37;31.67;;;0.50;99.90;;;;;;5044864;28;20227;-72
2022/01/09 07:51:13;;;;;;;64.70;33.13;;;0.50;99.90;;;;;;5042074;28;20236;-71
2022/01/09 07:54:02;;;;;;;68.90;32.50;;;0.60;99.90;;;;;;5055451;28;20217;-73
2022/01/09 07:56:50;;;;;;;67.57;32.23;;;0.60;99.90;;;;;;5041466;28;20323;-72
2022/01/09 07:59:40;;;;;;;65.60;31.47;;;0.60;99.90;;;;;;5053812;28;20224;-71
2022/01/09 08:02:30;;;;;;;60.63;32.17;;;0.60;99.90;;;;;;5039465;28;20216;-72
2022/01/09 08:05:19;;;;;;;70.87;32.30;;;0.60;99.90;;;;;;5051745;28;20216;-72
2022/01/09 08:08:08;;;;;;;66.97;32.07;;;0.60;99.90;;;;;;5049822;28;20216;-69
2022/01/09 08:10:57;;;;;;;68.83;31.80;;;0.60;99.90;;;;;;5052377;28;20213;-70
2022/01/09 08:13:45;;;;;;;67.40;31.87;;;0.50;99.90;;;;;;5039657;28;20216;-70
2022/01/09 08:16:35;;;;;;;67.10;32.20;;;0.60;99.90;;;;;;5054660;28;20693;-70
2022/01/09 08:19:24;;;;;;;74.17;32.37;;;0.50;99.90;;;;;;5051673;28;20221;-70
2022/01/09 08:22:13;;;;;;;69.77;32.00;;;0.60;99.90;;;;;;5035275;28;20229;-70
2022/01/09 08:25:03;;;;;;;71.97;32.93;;;0.60;99.90;;;;;;5049651;28;20937;-70
2022/01/09 08:27:55;;;;;;;71.47;32.67;;;0.70;99.90;;;;;;5054136;28;20232;-70
2022/01/09 08:30:48;;;;;;;69.97;32.73;;;0.70;99.90;;;;;;5038906;28;20697;-71
2022/01/09 08:33:38;;;;;;;69.87;33.40;;;0.70;99.90;;;;;;5053688;28;20316;-70
2022/01/09 08:36:30;;;;;;;69.33;33.53;;;0.70;99.90;;;;;;5056964;28;20217;-70
2022/01/09 08:39:19;;;;;;;69.90;31.53;;;0.70;99.90;;;;;;5049059;28;20219;-71
2022/01/09 08:42:08;;;;;;;65.60;33.03;;;0.70;99.90;;;;;;5053474;28;20230;-69
2022/01/09 08:44:57;;;;;;;63.53;31.77;;;0.70;99.90;;;;;;5052876;28;20367;-69
2022/01/09 08:47:46;;;;;;;66.13;32.10;;;0.70;99.90;;;;;;5053681;28;20235;-70
2022/01/09 08:50:36;;;;;;;64.53;32.27;;;0.70;99.90;;;;;;5036927;28;20601;-70
2022/01/09 08:53:24;;;;;;;67.03;32.27;;;0.80;99.90;;;;;;5052415;28;20311;-71
2022/01/09 08:56:13;;;;;;;67.23;32.20;;;0.80;99.90;;;;;;5052131;28;20237;-72
2022/01/09 08:59:02;;;;;;;64.83;32.40;;;0.80;99.90;;;;;;5036338;28;20260;-70
2022/01/09 09:02:05;;;;;;;63.60;31.17;;;0.80;99.90;;;;;;5049499;28;20241;-71
2022/01/09 09:04:54;;;;;;;61.30;31.77;;;0.90;99.90;;;;;;5055651;28;20230;-71
2022/01/09 09:07:44;;;;;;;65.70;33.20;;;0.90;99.90;;;;;;5041916;28;20220;-72
2022/01/09 09:10:33;;;;;;;58.20;30.90;;;0.90;99.90;;;;;;5052287;28;20235;-72
2022/01/09 09:13:21;;;;;;;61.87;32.03;;;1.00;99.90;;;;;;5052957;28;20264;-70
2022/01/09 09:16:10;;;;;;;62.47;32.10;;;1.10;99.90;;;;;;5046966;28;20235;-72
2022/01/09 09:18:59;;;;;;;62.10;31.67;;;1.10;99.90;;;;;;5038024;28;20220;-68
2022/01/09 09:21:47;;;;;;;60.63;29.80;;;1.20;99.90;;;;;;5051057;28;20301;-72
2022/01/09 09:24:38;;;;;;;64.07;31.07;;;1.20;99.90;;;;;;5038189;28;20226;-72
2022/01/09 09:27:32;;;;;;;61.33;31.40;;;1.20;99.90;;;;;;5054422;28;20296;-70
2022/01/09 09:30:21;;;;;;;60.93;32.07;;;1.10;99.90;;;;;;5056577;28;20219;-70
2022/01/09 09:33:10;;;;;;;61.43;31.37;;;1.20;99.90;;;;;;5039383;28;20676;-69
2022/01/09 09:36:00;;;;;;;56.57;29.97;;;1.30;99.90;;;;;;5054478;28;20658;-69
2022/01/09 09:38:49;;;;;;;56.10;29.57;;;1.30;99.90;;;;;;5051164;28;20624;-71
2022/01/09 09:41:41;;;;;;;60.13;30.90;;;1.30;99.90;;;;;;5041763;28;20223;-70
2022/01/09 09:44:30;;;;;;;61.93;31.17;;;1.30;99.90;;;;;;5037389;28;20776;-71
2022/01/09 09:47:19;;;;;;;61.23;31.23;;;1.40;99.90;;;;;;5052325;28;20224;-70
2022/01/09 09:50:10;;;;;;;60.90;31.43;;;1.50;99.90;;;;;;5054116;28;20220;-70
2022/01/09 09:52:59;;;;;;;57.97;31.13;;;1.50;99.90;;;;;;5052068;28;20217;-75
2022/01/09 09:55:51;;;;;;;51.87;27.10;;;1.60;99.90;;;;;;5043935;28;20762;-74
2022/01/09 09:58:42;;;;;;;59.90;29.37;;;1.60;99.90;;;;;;5050765;28;20219;-73
2022/01/09 10:01:32;;;;;;;64.60;31.13;;;1.60;99.90;;;;;;5053539;28;20860;-74
2022/01/09 10:04:22;;;;;;;51.53;27.83;;;1.60;99.90;;;;;;5043479;28;20223;-75
2022/01/09 10:07:23;;;;;;;56.27;29.63;;;1.70;99.90;;;;;;5046573;28;20239;-74
2022/01/09 10:10:14;;;;;;;62.40;31.80;;;1.70;99.90;;;;;;5054448;28;20231;-73
2022/01/09 10:13:08;;;;;;;57.17;31.30;;;1.70;99.90;;;;;;5052822;28;20311;-74
2022/01/09 10:16:01;;;;;;;51.50;28.17;;;1.80;99.90;;;;;;5052822;28;20223;-73
2022/01/09 10:18:50;;;;;;;60.27;29.63;;;1.80;99.90;;;;;;5056176;28;20216;-73
2022/01/09 10:21:39;;;;;;;61.47;29.57;;;1.80;99.90;;;;;;5056685;28;20541;-74
2022/01/09 10:24:32;;;;;;;57.20;30.13;;;1.80;99.90;;;;;;5049826;28;20343;-74
2022/01/09 10:27:28;;;;;;;54.37;28.80;;;1.90;99.90;;;;;;5050876;28;20250;-73
2022/01/09 10:30:22;;;;;;;55.93;29.73;;;1.80;99.90;;;;;;5052531;28;20749;-73
2022/01/09 10:33:14;;;;;;;57.40;30.63;;;1.90;99.90;;;;;;5050441;28;20212;-73
2022/01/09 10:36:04;;;;;;;50.97;27.57;;;2.00;99.90;;;;;;5055251;28;20344;-73
2022/01/09 10:38:52;;;;;;;57.53;29.50;;;2.00;99.90;;;;;;5042339;28;20223;-72
2022/01/09 10:41:55;;;;;;;59.63;31.67;;;1.90;99.90;;;;;;5044701;28;20292;-73
2022/01/09 10:44:44;;;;;;;58.47;29.83;;;2.00;99.90;;;;;;5054082;28;20249;-72
2022/01/09 10:47:37;;;;;;;56.40;29.30;;;2.00;99.90;;;;;;5050032;28;20212;-72
2022/01/09 10:50:29;;;;;;;57.93;30.80;;;2.00;99.90;;;;;;5042950;28;20235;-74
2022/01/09 10:53:36;;;;;;;53.47;27.93;;;2.00;99.90;;;;;;5053985;28;20342;-73
2022/01/09 10:56:26;;;;;;;62.03;30.63;;;2.10;99.90;;;;;;5039389;28;20220;-74
2022/01/09 10:59:14;;;;;;;54.33;29.03;;;2.10;99.90;;;;;;5049114;28;20236;-73
2022/01/09 11:02:06;;;;;;;59.50;32.10;;;2.20;99.90;;;;;;5042040;28;20221;-72
2022/01/09 11:04:55;;;;;;;58.57;29.20;;;2.00;99.90;;;;;;5051978;28;20228;-72
2022/01/09 11:07:45;;;;;;;50.20;27.50;;;2.10;99.90;;;;;;5054532;28;20236;-74
2022/01/09 11:10:38;;;;;;;72.17;34.27;;;2.10;99.90;;;;;;5047945;28;20228;-72
2022/01/09 11:13:28;;;;;;;59.63;31.47;;;2.10;99.90;;;;;;5053200;28;20223;-73
2022/01/09 11:16:37;;;;;;;54.57;30.43;;;2.10;99.90;;;;;;5051170;28;20215;-72
2022/01/09 11:19:26;;;;;;;52.20;28.13;;;2.20;99.90;;;;;;5050442;28;20236;-71
2022/01/09 11:22:15;;;;;;;54.83;28.50;;;2.10;99.90;;;;;;5037789;28;20701;-72
2022/01/09 11:25:20;;;;;;;54.17;29.40;;;2.10;99.90;;;;;;5044244;28;20226;-73
2022/01/09 11:28:15;;;;;;;57.03;30.90;;;2.20;99.90;;;;;;5052523;28;20272;-72
2022/01/09 11:31:14;;;;;;;58.97;28.20;;;2.20;99.90;;;;;;5051435;28;20218;-73
2022/01/09 11:34:20;;;;;;;48.33;26.90;;;2.20;99.90;;;;;;5044695;28;20226;-71
2022/01/09 11:37:17;;;;;;;52.27;27.87;;;2.20;99.90;;;;;;5050697;28;20664;-71
2022/01/09 11:40:23;;;;;;;49.78;32.20;;;2.20;99.90;;;;;;5056309;28;20454;-73
2022/01/09 11:43:14;;;;;;;51.43;28.23;;;2.40;99.90;;;;;;5055251;28;20219;-73
2022/01/09 11:46:03;;;;;;;53.60;28.50;;;2.40;99.90;;;;;;5036294;28;20231;-74
2022/01/09 11:49:06;;;;;;;46.13;24.63;;;2.40;99.90;;;;;;5038979;28;20236;-75
2022/01/09 11:51:57;;;;;;;45.97;25.43;;;2.30;99.90;;;;;;5047398;28;20300;-74
2022/01/09 11:54:50;;;;;;;42.10;24.43;;;2.40;99.90;;;;;;5052666;28;20692;-72
2022/01/09 11:57:44;;;;;;;47.27;26.17;;;2.30;99.90;;;;;;5055177;28;20229;-75
2022/01/09 12:00:35;;;;;;;42.63;24.37;;;2.30;99.90;;;;;;5049450;28;20236;-71
2022/01/09 12:03:37;;;;;;;45.50;24.60;;;2.30;99.90;;;;;;5049531;28;20224;-71
2022/01/09 12:06:40;;;;;;;45.93;25.47;;;2.40;99.90;;;;;;5050637;28;20216;-70
2022/01/09 12:09:32;;;;;;;43.97;24.60;;;2.40;99.90;;;;;;5048378;28;20217;-69
2022/01/09 12:12:22;;;;;;;46.77;23.87;;;2.40;99.90;;;;;;5053867;28;20229;-70
2022/01/09 12:15:12;;;;;;;44.07;23.50;;;2.40;99.90;;;;;;5052523;28;20228;-70
2022/01/09 12:18:03;;;;;;;43.23;24.07;;;2.40;99.90;;;;;;5049908;28;20219;-69
2022/01/09 12:20:52;;;;;;;41.33;22.67;;;2.50;99.90;;;;;;5049337;28;20286;-70
2022/01/09 12:23:41;;;;;;;44.63;23.93;;;2.50;99.90;;;;;;5050847;28;20304;-69
2022/01/09 12:26:29;;;;;;;38.77;20.70;;;2.50;99.90;;;;;;5050700;28;20213;-69
2022/01/09 12:29:47;;;;;;;36.93;19.83;;;2.50;99.90;;;;;;5053899;28;20236;-71
2022/01/09 12:32:46;;;;;;;37.10;19.97;;;2.40;99.90;;;;;;5052673;28;20228;-69
2022/01/09 12:35:36;;;;;;;42.03;21.67;;;2.50;99.90;;;;;;5052561;28;20406;-70
2022/01/09 12:38:27;;;;;;;39.30;20.53;;;2.50;99.90;;;;;;5048282;28;20686;-71
2022/01/09 12:41:17;;;;;;;36.20;19.67;;;2.50;99.90;;;;;;5041306;28;20233;-70
2022/01/09 12:44:08;;;;;;;35.43;18.23;;;2.50;99.90;;;;;;5053553;28;20221;-71
2022/01/09 12:46:57;;;;;;;33.80;18.50;;;2.60;99.90;;;;;;5054745;28;20224;-71
2022/01/09 12:49:47;;;;;;;32.70;18.50;;;2.60;99.90;;;;;;5044057;28;20247;-69
2022/01/09 12:52:35;;;;;;;32.93;18.50;;;2.60;99.90;;;;;;5054559;28;20221;-70
2022/01/09 12:55:24;;;;;;;35.13;17.70;;;2.60;99.90;;;;;;5055041;28;20228;-71
2022/01/09 12:58:28;;;;;;;31.57;17.87;;;2.60;99.90;;;;;;5045963;28;20231;-71
2022/01/09 13:01:19;;;;;;;30.73;17.30;;;2.70;99.90;;;;;;5044160;28;20228;-72
2022/01/09 13:04:10;;;;;;;30.00;16.77;;;2.70;99.90;;;;;;5052830;28;20220;-72
2022/01/09 13:07:01;;;;;;;33.87;17.40;;;2.60;99.90;;;;;;5054472;28;20228;-72
2022/01/09 13:09:50;;;;;;;28.33;16.50;;;2.60;99.90;;;;;;5053127;28;20355;-71
2022/01/09 13:12:38;;;;;;;25.70;15.80;;;2.60;99.90;;;;;;5052064;28;20231;-71
2022/01/09 13:15:34;;;;;;;30.40;16.67;;;2.70;99.90;;;;;;5053963;28;20221;-70
2022/01/09 13:18:49;;;;;;;31.97;16.80;;;2.60;99.90;;;;;;5038224;28;20330;-71
2022/01/09 13:21:40;;;;;;;29.13;16.73;;;2.70;99.90;;;;;;5043585;28;20592;-73
2022/01/09 13:24:30;;;;;;;28.37;16.43;;;2.70;99.90;;;;;;5039372;28;20228;-72
2022/01/09 13:27:21;;;;;;;30.53;16.53;;;2.70;99.90;;;;;;5053917;28;20232;-71
2022/01/09 13:30:10;;;;;;;32.97;17.17;;;2.70;99.90;;;;;;5052542;28;20323;-69
2022/01/09 13:33:03;;;;;;;31.20;17.23;;;2.70;99.90;;;;;;5039183;28;20223;-70
2022/01/09 13:35:51;;;;;;;36.87;18.10;;;2.70;99.90;;;;;;5037314;28;20247;-71
2022/01/09 13:38:40;;;;;;;33.13;18.33;;;2.70;99.90;;;;;;5050725;28;20390;-72
2022/01/09 13:41:32;;;;;;;34.73;18.10;;;2.80;99.90;;;;;;5054386;28;20224;-72
2022/01/09 13:44:25;;;;;;;33.53;18.47;;;2.80;99.90;;;;;;5043208;28;20221;-71
2022/01/09 13:47:15;;;;;;;30.73;16.83;;;2.80;99.90;;;;;;5056178;28;20373;-70
2022/01/09 13:50:05;;;;;;;33.77;17.90;;;2.80;99.90;;;;;;5056810;28;20228;-71
2022/01/09 13:52:55;;;;;;;30.10;16.70;;;2.70;99.90;;;;;;5058458;28;20232;-71
2022/01/09 13:55:44;;;;;;;32.37;17.97;;;2.80;99.90;;;;;;5045449;28;20316;-71
2022/01/09 13:58:33;;;;;;;32.77;17.20;;;2.80;99.90;;;;;;5056614;28;20224;-72
2022/01/09 14:01:37;;;;;;;31.70;17.03;;;2.70;99.90;;;;;;5056205;28;20250;-73
2022/01/09 14:04:26;;;;;;;33.73;17.60;;;2.70;99.90;;;;;;5042629;28;20224;-72
2022/01/09 14:07:16;;;;;;;35.10;17.90;;;2.70;99.90;;;;;;5055038;28;20232;-71
2022/01/09 14:10:07;;;;;;;31.60;16.87;;;2.70;99.90;;;;;;5039824;28;20244;-70
2022/01/09 14:12:56;;;;;;;29.67;15.93;;;2.70;99.90;;;;;;5045693;28;20224;-71
2022/01/09 14:15:49;;;;;;;30.77;17.37;;;2.70;99.90;;;;;;5055803;28;20232;-71
2022/01/09 14:18:39;;;;;;;31.40;17.63;;;2.70;99.90;;;;;;5055959;28;20561;-71
2022/01/09 14:21:27;;;;;;;34.83;18.33;;;2.70;99.90;;;;;;5053289;28;20212;-71
2022/01/09 14:24:16;;;;;;;32.80;18.23;;;2.70;99.90;;;;;;5054689;28;20591;-73
2022/01/09 14:27:05;;;;;;;33.03;17.83;;;2.70;99.90;;;;;;5042202;28;20226;-71
2022/01/09 14:29:55;;;;;;;36.07;19.30;;;2.60;99.90;;;;;;5057303;28;20213;-72
2022/01/09 14:32:45;;;;;;;32.87;18.83;;;2.60;99.90;;;;;;5041222;28;20294;-72
2022/01/09 14:35:35;;;;;;;33.90;18.57;;;2.60;99.90;;;;;;5042645;28;20370;-72